createdAt,value
2023-03-16T00:07:29.181Z,100545.55
2023-03-16T00:22:32.397Z,100551.64
2023-03-16T00:37:37.113Z,100563.80
2023-03-16T00:52:40.368Z,100559.30
2023-03-16T01:07:45.327Z,100560.04
2023-03-16T01:22:48.615Z,100567.55
2023-03-16T01:37:52.037Z,100566.40
2023-03-16T01:52:59.844Z,100570.68
2023-03-16T02:08:05.693Z,100576.90
2023-03-16T02:23:18.590Z,100581.84
2023-03-16T02:38:23.122Z,100584.02
2023-03-16T02:53:28.164Z,100597.22
2023-03-16T03:08:33.213Z,100605.95
2023-03-16T03:23:36.523Z,100614.54
2023-03-16T03:38:39.786Z,100621.69
2023-03-16T03:53:43.292Z,100631.91
2023-03-16T04:08:55.352Z,100641.71
2023-03-16T04:24:04.113Z,100637.27
2023-03-16T04:39:10.759Z,100637.17
2023-03-16T04:54:14.232Z,100644.30
2023-03-16T05:09:20.889Z,100644.12
2023-03-16T05:24:42.045Z,100653.14
2023-03-16T05:39:45.263Z,100660.14
2023-03-16T05:54:48.755Z,100658.23
2023-03-16T06:09:52.527Z,100675.52
2023-03-16T06:24:55.968Z,100680.85
2023-03-16T06:39:59.561Z,100696.60
2023-03-16T06:55:05.082Z,100704.91
2023-03-16T07:10:15.195Z,100715.92
2023-03-16T07:25:18.816Z,100724.52
2023-03-16T07:40:27.191Z,100728.67
2023-03-16T07:55:39.103Z,100735.31
2023-03-16T08:10:48.844Z,100736.47
2023-03-16T08:25:57.903Z,100749.90
2023-03-16T08:41:02.272Z,100759.84
2023-03-16T08:56:09.018Z,100773.80
2023-03-16T09:11:15.440Z,100775.30
2023-03-16T09:26:19.018Z,100784.77
2023-03-16T09:41:34.507Z,100780.24
2023-03-16T09:56:43.547Z,100781.66
2023-03-16T10:11:53.605Z,100793.02
2023-03-16T10:27:04.961Z,100799.49
2023-03-16T10:42:21.534Z,100801.21
2023-03-16T10:57:34.879Z,100820.62
2023-03-16T11:12:39.462Z,100840.15
2023-03-16T11:28:15.704Z,100853.91
2023-03-16T11:43:42.039Z,100863.58
2023-03-16T11:59:04.157Z,100871.06
2023-03-16T12:14:47.997Z,100868.04
2023-03-16T12:29:59.905Z,100873.65
2023-03-16T12:45:17.896Z,100875.16
2023-03-16T13:00:21.746Z,100892.19
2023-03-16T13:15:30.315Z,100895.88
2023-03-16T13:30:35.203Z,100900.03
2023-03-16T13:45:39.833Z,100912.60
2023-03-16T14:00:46.036Z,100919.96
2023-03-16T14:15:49.310Z,100928.25
2023-03-16T14:31:07.640Z,100926.80
2023-03-16T14:46:23.344Z,100928.73
2023-03-16T15:01:27.264Z,100930.87
2023-03-16T15:16:31.179Z,100933.33
2023-03-16T15:31:34.511Z,100942.05
2023-03-16T15:46:38.279Z,100947.73
2023-03-16T16:01:47.893Z,100953.83
2023-03-16T16:16:53.347Z,100963.16
2023-03-16T16:31:57.288Z,100982.34
2023-03-16T16:47:29.745Z,101000.58
2023-03-16T17:02:48.441Z,101007.71
2023-03-16T17:17:53.323Z,101020.11
2023-03-16T17:33:07.381Z,101031.63
2023-03-16T17:48:14.904Z,101051.10
2023-03-16T18:03:19.470Z,101064.70
2023-03-16T18:18:27.239Z,101066.25
2023-03-16T18:33:39.016Z,101084.14
2023-03-16T18:48:44.295Z,101100.52
2023-03-16T19:03:49.960Z,101118.22
2023-03-16T19:18:53.846Z,101126.86
2023-03-16T19:33:59.269Z,101135.13
2023-03-16T19:49:03.223Z,101139.84
2023-03-16T20:04:18.696Z,101153.91
2023-03-16T20:19:22.430Z,101156.84
2023-03-16T20:34:29.550Z,101167.41
2023-03-16T20:49:34.744Z,101162.16
2023-03-16T21:04:39.633Z,101162.86
2023-03-16T21:19:44.641Z,101162.38
2023-03-16T21:34:49.344Z,101171.98
2023-03-16T21:49:55.784Z,101175.58
2023-03-16T22:05:00.606Z,101173.71
2023-03-16T22:20:15.795Z,101166.84
2023-03-16T22:35:33.498Z,101179.27
2023-03-16T22:50:36.946Z,101192.48
2023-03-16T23:05:40.227Z,101223.20
2023-03-16T23:20:43.420Z,101232.98
2023-03-16T23:35:46.903Z,101216.02
2023-03-16T23:50:53.237Z,101203.55
